sensor_id;sensor_type;location;lat;lon;timestamp;temperature;humidity
70726;DHT22;58304;53.104;6.022;2022-12-18T00:00:59;-3.30;99.90
70726;DHT22;58304;53.104;6.022;2022-12-18T00:03:25;-3.40;99.90
70726;DHT22;58304;53.104;6.022;2022-12-18T00:05:51;-3.40;99.90
70726;DHT22;58304;53.104;6.022;2022-12-18T00:08:18;-3.40;99.90
70726;DHT22;58304;53.104;6.022;2022-12-18T00:10:44;-3.40;99.90
70726;DHT22;58304;53.104;6.022;2022-12-18T00:13:10;-3.40;99.90
70726;DHT22;58304;53.104;6.022;2022-12-18T00:15:36;-3.40;99.90
70726;DHT22;58304;53.104;6.022;2022-12-18T00:18:02;-3.40;99.90
70726;DHT22;58304;53.104;6.022;2022-12-18T00:20:28;-3.50;99.90
70726;DHT22;58304;53.104;6.022;2022-12-18T00:22:54;-3.50;99.90
70726;DHT22;58304;53.104;6.022;2022-12-18T00:25:20;-3.50;99.90
70726;DHT22;58304;53.104;6.022;2022-12-18T00:27:45;-3.50;99.90
70726;DHT22;58304;53.104;6.022;2022-12-18T00:30:12;-3.50;99.90
70726;DHT22;58304;53.104;6.022;2022-12-18T00:32:37;-3.60;99.90
70726;DHT22;58304;53.104;6.022;2022-12-18T00:35:04;-3.50;99.90
70726;DHT22;58304;53.104;6.022;2022-12-18T00:37:30;-3.60;99.90
70726;DHT22;58304;53.104;6.022;2022-12-18T00:39:55;-3.60;99.90
70726;DHT22;58304;53.104;6.022;2022-12-18T00:42:21;-3.60;99.90
70726;DHT22;58304;53.104;6.022;2022-12-18T00:45:05;-3.60;99.90
70726;DHT22;58304;53.104;6.022;2022-12-18T00:47:31;-3.60;99.90
70726;DHT22;58304;53.104;6.022;2022-12-18T00:49:56;-3.70;99.90
70726;DHT22;58304;53.104;6.022;2022-12-18T00:52:22;-3.70;99.90
70726;DHT22;58304;53.104;6.022;2022-12-18T00:54:48;-3.70;99.90
70726;DHT22;58304;53.104;6.022;2022-12-18T00:57:13;-3.70;99.90
70726;DHT22;58304;53.104;6.022;2022-12-18T00:59:39;-3.70;99.90
70726;DHT22;58304;53.104;6.022;2022-12-18T01:02:04;-3.80;99.90
70726;DHT22;58304;53.104;6.022;2022-12-18T01:04:32;-3.80;99.90
70726;DHT22;58304;53.104;6.022;2022-12-18T01:06:58;-3.80;99.90
70726;DHT22;58304;53.104;6.022;2022-12-18T01:09:23;-3.80;99.90
70726;DHT22;58304;53.104;6.022;2022-12-18T01:11:49;-3.80;99.90
70726;DHT22;58304;53.104;6.022;2022-12-18T01:14:15;-3.70;99.90
70726;DHT22;58304;53.104;6.022;2022-12-18T01:16:40;-3.80;99.90
70726;DHT22;58304;53.104;6.022;2022-12-18T01:19:06;-3.80;99.90
70726;DHT22;58304;53.104;6.022;2022-12-18T01:21:32;-3.80;99.90
70726;DHT22;58304;53.104;6.022;2022-12-18T01:23:57;-3.80;99.90
70726;DHT22;58304;53.104;6.022;2022-12-18T01:26:24;-3.90;99.90
70726;DHT22;58304;53.104;6.022;2022-12-18T01:28:49;-3.90;99.90
70726;DHT22;58304;53.104;6.022;2022-12-18T01:31:21;-3.90;99.90
70726;DHT22;58304;53.104;6.022;2022-12-18T01:33:47;-3.90;99.90
70726;DHT22;58304;53.104;6.022;2022-12-18T01:36:23;-3.90;99.90
70726;DHT22;58304;53.104;6.022;2022-12-18T01:38:50;-3.90;99.90
70726;DHT22;58304;53.104;6.022;2022-12-18T01:41:16;-3.90;99.90
70726;DHT22;58304;53.104;6.022;2022-12-18T01:46:14;-3.90;99.90
70726;DHT22;58304;53.104;6.022;2022-12-18T01:48:42;-3.90;99.90
70726;DHT22;58304;53.104;6.022;2022-12-18T01:51:10;-3.90;99.90
70726;DHT22;58304;53.104;6.022;2022-12-18T01:53:37;-4.00;99.90
70726;DHT22;58304;53.104;6.022;2022-12-18T01:56:04;-4.00;99.90
70726;DHT22;58304;53.104;6.022;2022-12-18T02:01:07;-4.00;99.90
70726;DHT22;58304;53.104;6.022;2022-12-18T02:03:32;-4.00;99.90
70726;DHT22;58304;53.104;6.022;2022-12-18T02:06:15;-4.00;99.90
70726;DHT22;58304;53.104;6.022;2022-12-18T02:08:50;-4.10;99.90
70726;DHT22;58304;53.104;6.022;2022-12-18T02:11:37;-4.10;99.90
70726;DHT22;58304;53.104;6.022;2022-12-18T02:17:12;-4.30;99.90
70726;DHT22;58304;53.104;6.022;2022-12-18T02:22:24;-4.40;99.90
70726;DHT22;58304;53.104;6.022;2022-12-18T02:25:26;-4.50;99.90
70726;DHT22;58304;53.104;6.022;2022-12-18T02:27:56;-4.50;99.90
70726;DHT22;58304;53.104;6.022;2022-12-18T02:30:23;-4.50;99.90
70726;DHT22;58304;53.104;6.022;2022-12-18T02:32:52;-4.60;99.90
70726;DHT22;58304;53.104;6.022;2022-12-18T02:35:27;-4.60;99.90
70726;DHT22;58304;53.104;6.022;2022-12-18T02:37:54;-4.60;99.90
70726;DHT22;58304;53.104;6.022;2022-12-18T02:40:20;-4.60;99.90
70726;DHT22;58304;53.104;6.022;2022-12-18T02:42:47;-4.60;99.90
70726;DHT22;58304;53.104;6.022;2022-12-18T02:45:12;-4.60;99.90
70726;DHT22;58304;53.104;6.022;2022-12-18T02:47:42;-4.60;99.90
70726;DHT22;58304;53.104;6.022;2022-12-18T02:50:35;-4.60;99.90
70726;DHT22;58304;53.104;6.022;2022-12-18T02:53:23;-4.60;99.90
70726;DHT22;58304;53.104;6.022;2022-12-18T02:56:09;-4.70;99.90
70726;DHT22;58304;53.104;6.022;2022-12-18T02:58:47;-4.70;99.90
70726;DHT22;58304;53.104;6.022;2022-12-18T03:01:21;-4.70;99.90
70726;DHT22;58304;53.104;6.022;2022-12-18T03:03:58;-4.70;99.90
70726;DHT22;58304;53.104;6.022;2022-12-18T03:06:38;-4.70;99.90
70726;DHT22;58304;53.104;6.022;2022-12-18T03:09:29;-4.80;99.90
70726;DHT22;58304;53.104;6.022;2022-12-18T03:12:06;-4.80;99.90
70726;DHT22;58304;53.104;6.022;2022-12-18T03:14:59;-4.80;99.90
70726;DHT22;58304;53.104;6.022;2022-12-18T03:17:28;-4.80;99.90
70726;DHT22;58304;53.104;6.022;2022-12-18T03:19:57;-4.80;99.90
70726;DHT22;58304;53.104;6.022;2022-12-18T03:22:26;-4.90;99.90
70726;DHT22;58304;53.104;6.022;2022-12-18T03:24:56;-4.90;99.90
70726;DHT22;58304;53.104;6.022;2022-12-18T03:27:24;-5.00;99.90
70726;DHT22;58304;53.104;6.022;2022-12-18T03:30:02;-5.00;99.90
70726;DHT22;58304;53.104;6.022;2022-12-18T03:32:38;-5.10;99.90
70726;DHT22;58304;53.104;6.022;2022-12-18T03:35:07;-5.10;99.90
70726;DHT22;58304;53.104;6.022;2022-12-18T03:37:33;-5.10;99.90
70726;DHT22;58304;53.104;6.022;2022-12-18T03:39:59;-5.10;99.90
70726;DHT22;58304;53.104;6.022;2022-12-18T03:42:43;-5.10;99.90
70726;DHT22;58304;53.104;6.022;2022-12-18T03:45:18;-5.00;99.90
70726;DHT22;58304;53.104;6.022;2022-12-18T03:50:15;-5.00;99.90
70726;DHT22;58304;53.104;6.022;2022-12-18T03:53:09;-5.00;99.90
70726;DHT22;58304;53.104;6.022;2022-12-18T03:55:33;-5.00;99.90
70726;DHT22;58304;53.104;6.022;2022-12-18T03:58:01;-5.10;99.90
70726;DHT22;58304;53.104;6.022;2022-12-18T04:00:29;-5.10;99.90
70726;DHT22;58304;53.104;6.022;2022-12-18T04:02:56;-5.00;99.90
70726;DHT22;58304;53.104;6.022;2022-12-18T04:05:25;-5.10;99.90
70726;DHT22;58304;53.104;6.022;2022-12-18T04:07:53;-5.20;99.90
70726;DHT22;58304;53.104;6.022;2022-12-18T04:10:20;-5.20;99.90
70726;DHT22;58304;53.104;6.022;2022-12-18T04:12:45;-5.30;99.90
70726;DHT22;58304;53.104;6.022;2022-12-18T04:15:12;-5.40;99.90
70726;DHT22;58304;53.104;6.022;2022-12-18T04:17:47;-5.40;99.90
70726;DHT22;58304;53.104;6.022;2022-12-18T04:20:14;-5.50;99.90
70726;DHT22;58304;53.104;6.022;2022-12-18T04:22:40;-5.50;99.90
70726;DHT22;58304;53.104;6.022;2022-12-18T04:25:05;-5.50;99.90
70726;DHT22;58304;53.104;6.022;2022-12-18T04:27:31;-5.60;99.90
70726;DHT22;58304;53.104;6.022;2022-12-18T04:29:57;-5.70;99.90
70726;DHT22;58304;53.104;6.022;2022-12-18T04:32:22;-5.70;99.90
70726;DHT22;58304;53.104;6.022;2022-12-18T04:34:48;-5.70;99.90
70726;DHT22;58304;53.104;6.022;2022-12-18T04:37:14;-5.70;99.90
70726;DHT22;58304;53.104;6.022;2022-12-18T04:39:39;-5.70;99.90
70726;DHT22;58304;53.104;6.022;2022-12-18T04:42:05;-5.70;99.90
70726;DHT22;58304;53.104;6.022;2022-12-18T04:44:30;-5.70;99.90
70726;DHT22;58304;53.104;6.022;2022-12-18T04:46:56;-5.70;99.90
70726;DHT22;58304;53.104;6.022;2022-12-18T04:49:22;-5.70;99.90
70726;DHT22;58304;53.104;6.022;2022-12-18T04:51:47;-5.80;99.90
70726;DHT22;58304;53.104;6.022;2022-12-18T04:54:13;-5.70;99.90
70726;DHT22;58304;53.104;6.022;2022-12-18T04:56:38;-5.70;99.90
70726;DHT22;58304;53.104;6.022;2022-12-18T04:59:05;-5.80;99.90
70726;DHT22;58304;53.104;6.022;2022-12-18T05:01:33;-5.80;99.90
70726;DHT22;58304;53.104;6.022;2022-12-18T05:03:59;-5.80;99.90
70726;DHT22;58304;53.104;6.022;2022-12-18T05:06:24;-5.80;99.90
70726;DHT22;58304;53.104;6.022;2022-12-18T05:08:50;-5.80;99.90
70726;DHT22;58304;53.104;6.022;2022-12-18T05:11:16;-5.90;99.90
70726;DHT22;58304;53.104;6.022;2022-12-18T05:13:42;-5.90;99.90
70726;DHT22;58304;53.104;6.022;2022-12-18T05:16:08;-5.90;99.90
70726;DHT22;58304;53.104;6.022;2022-12-18T05:18:34;-6.00;99.90
70726;DHT22;58304;53.104;6.022;2022-12-18T05:21:00;-5.90;99.90
70726;DHT22;58304;53.104;6.022;2022-12-18T05:23:26;-5.90;99.90
70726;DHT22;58304;53.104;6.022;2022-12-18T05:25:59;-5.90;99.90
70726;DHT22;58304;53.104;6.022;2022-12-18T05:28:26;-5.90;99.90
70726;DHT22;58304;53.104;6.022;2022-12-18T05:30:55;-5.90;99.90
70726;DHT22;58304;53.104;6.022;2022-12-18T05:33:23;-6.00;99.90
70726;DHT22;58304;53.104;6.022;2022-12-18T05:38:19;-6.00;99.90
70726;DHT22;58304;53.104;6.022;2022-12-18T05:40:44;-6.00;99.90
70726;DHT22;58304;53.104;6.022;2022-12-18T05:43:10;-6.10;99.90
70726;DHT22;58304;53.104;6.022;2022-12-18T05:45:39;-6.10;99.90
70726;DHT22;58304;53.104;6.022;2022-12-18T05:48:06;-6.10;99.90
70726;DHT22;58304;53.104;6.022;2022-12-18T05:50:38;-6.20;99.90
70726;DHT22;58304;53.104;6.022;2022-12-18T05:53:04;-6.20;99.90
70726;DHT22;58304;53.104;6.022;2022-12-18T05:55:33;-6.30;99.90
70726;DHT22;58304;53.104;6.022;2022-12-18T05:58:00;-6.30;99.90
70726;DHT22;58304;53.104;6.022;2022-12-18T06:00:25;-6.40;99.90
70726;DHT22;58304;53.104;6.022;2022-12-18T06:02:51;-6.40;99.90
70726;DHT22;58304;53.104;6.022;2022-12-18T06:05:16;-6.40;99.90
70726;DHT22;58304;53.104;6.022;2022-12-18T06:07:42;-6.50;99.90
70726;DHT22;58304;53.104;6.022;2022-12-18T06:10:08;-6.50;99.90
70726;DHT22;58304;53.104;6.022;2022-12-18T06:12:33;-6.60;99.90
70726;DHT22;58304;53.104;6.022;2022-12-18T06:14:59;-6.60;99.90
70726;DHT22;58304;53.104;6.022;2022-12-18T06:17:32;-6.60;99.90
70726;DHT22;58304;53.104;6.022;2022-12-18T06:19:58;-6.60;99.90
70726;DHT22;58304;53.104;6.022;2022-12-18T06:22:23;-6.60;99.90
70726;DHT22;58304;53.104;6.022;2022-12-18T06:24:49;-6.60;99.90
70726;DHT22;58304;53.104;6.022;2022-12-18T06:27:15;-6.50;99.90
70726;DHT22;58304;53.104;6.022;2022-12-18T06:29:40;-6.60;99.90
70726;DHT22;58304;53.104;6.022;2022-12-18T06:32:06;-6.50;99.90
70726;DHT22;58304;53.104;6.022;2022-12-18T06:34:32;-6.60;99.90
70726;DHT22;58304;53.104;6.022;2022-12-18T06:36:58;-6.60;99.90
70726;DHT22;58304;53.104;6.022;2022-12-18T06:39:24;-6.60;99.90
70726;DHT22;58304;53.104;6.022;2022-12-18T06:41:50;-6.60;99.90
70726;DHT22;58304;53.104;6.022;2022-12-18T06:44:16;-6.60;99.90
70726;DHT22;58304;53.104;6.022;2022-12-18T06:46:41;-6.60;99.90
70726;DHT22;58304;53.104;6.022;2022-12-18T06:49:07;-6.60;99.90
70726;DHT22;58304;53.104;6.022;2022-12-18T06:51:34;-6.50;99.90
70726;DHT22;58304;53.104;6.022;2022-12-18T06:54:00;-6.50;99.90
70726;DHT22;58304;53.104;6.022;2022-12-18T06:56:26;-6.40;99.90
70726;DHT22;58304;53.104;6.022;2022-12-18T06:58:51;-6.30;99.90
70726;DHT22;58304;53.104;6.022;2022-12-18T07:01:17;-6.30;99.90
70726;DHT22;58304;53.104;6.022;2022-12-18T07:03:43;-6.20;99.90
70726;DHT22;58304;53.104;6.022;2022-12-18T07:06:17;-6.20;99.90
70726;DHT22;58304;53.104;6.022;2022-12-18T07:08:44;-6.10;99.90
70726;DHT22;58304;53.104;6.022;2022-12-18T07:11:10;-6.10;99.90
70726;DHT22;58304;53.104;6.022;2022-12-18T07:13:36;-6.10;99.90
70726;DHT22;58304;53.104;6.022;2022-12-18T07:16:07;-6.10;99.90
70726;DHT22;58304;53.104;6.022;2022-12-18T07:18:33;-6.00;99.90
70726;DHT22;58304;53.104;6.022;2022-12-18T07:21:03;-6.00;99.90
70726;DHT22;58304;53.104;6.022;2022-12-18T07:23:30;-6.00;99.90
70726;DHT22;58304;53.104;6.022;2022-12-18T07:26:07;-5.90;99.90
70726;DHT22;58304;53.104;6.022;2022-12-18T07:28:34;-5.90;99.90
70726;DHT22;58304;53.104;6.022;2022-12-18T07:31:04;-5.90;99.90
70726;DHT22;58304;53.104;6.022;2022-12-18T07:33:31;-5.80;99.90
70726;DHT22;58304;53.104;6.022;2022-12-18T07:35:58;-5.80;99.90
70726;DHT22;58304;53.104;6.022;2022-12-18T07:38:24;-5.80;99.90
70726;DHT22;58304;53.104;6.022;2022-12-18T07:40:49;-5.70;99.90
70726;DHT22;58304;53.104;6.022;2022-12-18T07:43:15;-5.70;99.90
70726;DHT22;58304;53.104;6.022;2022-12-18T07:45:42;-5.70;99.90
70726;DHT22;58304;53.104;6.022;2022-12-18T07:48:07;-5.70;99.90
70726;DHT22;58304;53.104;6.022;2022-12-18T07:50:33;-5.70;99.90
70726;DHT22;58304;53.104;6.022;2022-12-18T07:52:58;-5.70;99.90
70726;DHT22;58304;53.104;6.022;2022-12-18T07:55:29;-5.70;99.90
70726;DHT22;58304;53.104;6.022;2022-12-18T07:57:55;-5.60;99.90
70726;DHT22;58304;53.104;6.022;2022-12-18T08:00:20;-5.60;99.90
70726;DHT22;58304;53.104;6.022;2022-12-18T08:02:46;-5.60;99.90
70726;DHT22;58304;53.104;6.022;2022-12-18T08:05:12;-5.60;99.90
70726;DHT22;58304;53.104;6.022;2022-12-18T08:07:38;-5.50;99.90
70726;DHT22;58304;53.104;6.022;2022-12-18T08:10:05;-5.40;99.90
70726;DHT22;58304;53.104;6.022;2022-12-18T08:12:31;-5.30;99.90
70726;DHT22;58304;53.104;6.022;2022-12-18T08:14:57;-5.20;99.90
70726;DHT22;58304;53.104;6.022;2022-12-18T08:17:22;-5.10;99.90
70726;DHT22;58304;53.104;6.022;2022-12-18T08:19:48;-5.10;99.90
70726;DHT22;58304;53.104;6.022;2022-12-18T08:22:13;-5.10;99.90
70726;DHT22;58304;53.104;6.022;2022-12-18T08:24:39;-5.00;99.90
70726;DHT22;58304;53.104;6.022;2022-12-18T08:27:07;-5.00;99.90
70726;DHT22;58304;53.104;6.022;2022-12-18T08:29:33;-4.90;99.90
70726;DHT22;58304;53.104;6.022;2022-12-18T08:31:59;-4.90;99.90
70726;DHT22;58304;53.104;6.022;2022-12-18T08:34:25;-4.80;99.90
70726;DHT22;58304;53.104;6.022;2022-12-18T08:36:52;-4.80;99.90
70726;DHT22;58304;53.104;6.022;2022-12-18T08:39:17;-4.70;99.90
70726;DHT22;58304;53.104;6.022;2022-12-18T08:41:43;-4.70;99.90
70726;DHT22;58304;53.104;6.022;2022-12-18T08:44:28;-4.60;99.90
70726;DHT22;58304;53.104;6.022;2022-12-18T08:47:03;-4.60;99.90
70726;DHT22;58304;53.104;6.022;2022-12-18T08:49:29;-4.40;99.90
70726;DHT22;58304;53.104;6.022;2022-12-18T08:51:55;-4.40;99.90
70726;DHT22;58304;53.104;6.022;2022-12-18T08:54:23;-4.30;99.90
70726;DHT22;58304;53.104;6.022;2022-12-18T08:56:49;-4.20;99.90
70726;DHT22;58304;53.104;6.022;2022-12-18T08:59:16;-4.00;99.90
70726;DHT22;58304;53.104;6.022;2022-12-18T09:01:42;-3.80;99.90
70726;DHT22;58304;53.104;6.022;2022-12-18T09:04:08;-3.80;99.90
70726;DHT22;58304;53.104;6.022;2022-12-18T09:06:34;-3.60;99.90
70726;DHT22;58304;53.104;6.022;2022-12-18T09:09:00;-3.60;99.90
70726;DHT22;58304;53.104;6.022;2022-12-18T09:11:26;-3.40;99.90
70726;DHT22;58304;53.104;6.022;2022-12-18T09:13:53;-3.30;99.90
70726;DHT22;58304;53.104;6.022;2022-12-18T09:16:21;-3.20;99.90
70726;DHT22;58304;53.104;6.022;2022-12-18T09:18:47;-3.00;99.90
70726;DHT22;58304;53.104;6.022;2022-12-18T09:21:15;-2.80;99.90
70726;DHT22;58304;53.104;6.022;2022-12-18T09:23:42;-2.70;99.90
70726;DHT22;58304;53.104;6.022;2022-12-18T09:26:08;-2.50;99.90
70726;DHT22;58304;53.104;6.022;2022-12-18T09:28:33;-2.30;99.90
70726;DHT22;58304;53.104;6.022;2022-12-18T09:31:04;-2.20;99.90
70726;DHT22;58304;53.104;6.022;2022-12-18T09:33:30;-2.20;99.90
70726;DHT22;58304;53.104;6.022;2022-12-18T09:35:55;-2.10;99.90
70726;DHT22;58304;53.104;6.022;2022-12-18T09:38:21;-2.00;99.90
70726;DHT22;58304;53.104;6.022;2022-12-18T09:40:53;-1.80;99.90
70726;DHT22;58304;53.104;6.022;2022-12-18T09:43:27;-1.80;99.90
70726;DHT22;58304;53.104;6.022;2022-12-18T09:46:10;-1.70;99.90
70726;DHT22;58304;53.104;6.022;2022-12-18T09:48:44;-1.60;99.90
70726;DHT22;58304;53.104;6.022;2022-12-18T09:53:41;-1.10;99.90
70726;DHT22;58304;53.104;6.022;2022-12-18T09:56:15;-0.80;99.90
70726;DHT22;58304;53.104;6.022;2022-12-18T09:58:55;-0.40;99.90
70726;DHT22;58304;53.104;6.022;2022-12-18T10:01:22;0.10;99.90
70726;DHT22;58304;53.104;6.022;2022-12-18T10:03:49;0.20;99.90
70726;DHT22;58304;53.104;6.022;2022-12-18T10:06:28;0.00;99.90
70726;DHT22;58304;53.104;6.022;2022-12-18T10:14:41;-1.00;99.90
70726;DHT22;58304;53.104;6.022;2022-12-18T10:19:58;-1.60;99.90
70726;DHT22;58304;53.104;6.022;2022-12-18T10:22:49;-1.60;99.90
70726;DHT22;58304;53.104;6.022;2022-12-18T10:25:26;-1.80;99.90
70726;DHT22;58304;53.104;6.022;2022-12-18T10:27:58;-1.70;99.90
70726;DHT22;58304;53.104;6.022;2022-12-18T10:30:25;-1.70;99.90
70726;DHT22;58304;53.104;6.022;2022-12-18T10:32:51;-1.70;99.90
70726;DHT22;58304;53.104;6.022;2022-12-18T10:35:25;-1.70;99.90
70726;DHT22;58304;53.104;6.022;2022-12-18T10:38:05;-1.70;99.90
70726;DHT22;58304;53.104;6.022;2022-12-18T10:40:32;-1.70;99.90
70726;DHT22;58304;53.104;6.022;2022-12-18T10:43:14;-1.70;99.90
70726;DHT22;58304;53.104;6.022;2022-12-18T10:45:41;-1.90;99.90
70726;DHT22;58304;53.104;6.022;2022-12-18T10:48:21;-1.90;99.90
70726;DHT22;58304;53.104;6.022;2022-12-18T10:50:51;-2.00;99.90
70726;DHT22;58304;53.104;6.022;2022-12-18T10:53:21;-2.00;99.90
70726;DHT22;58304;53.104;6.022;2022-12-18T10:55:47;-2.00;99.90
70726;DHT22;58304;53.104;6.022;2022-12-18T11:01:21;-2.00;99.90
70726;DHT22;58304;53.104;6.022;2022-12-18T11:06:20;-1.90;99.90
70726;DHT22;58304;53.104;6.022;2022-12-18T11:09:04;-1.90;99.90
70726;DHT22;58304;53.104;6.022;2022-12-18T11:11:32;-1.90;99.90
70726;DHT22;58304;53.104;6.022;2022-12-18T11:14:05;-1.90;99.90
70726;DHT22;58304;53.104;6.022;2022-12-18T11:16:46;-1.70;99.90
70726;DHT22;58304;53.104;6.022;2022-12-18T11:19:33;-1.70;99.90
70726;DHT22;58304;53.104;6.022;2022-12-18T11:21:59;-1.70;99.90
70726;DHT22;58304;53.104;6.022;2022-12-18T11:24:34;-1.60;99.90
70726;DHT22;58304;53.104;6.022;2022-12-18T11:27:02;-1.70;99.90
70726;DHT22;58304;53.104;6.022;2022-12-18T11:29:38;-1.70;99.90
70726;DHT22;58304;53.104;6.022;2022-12-18T11:32:28;-1.70;99.90
70726;DHT22;58304;53.104;6.022;2022-12-18T11:35:13;-1.80;99.90
70726;DHT22;58304;53.104;6.022;2022-12-18T11:37:43;-1.80;99.90
70726;DHT22;58304;53.104;6.022;2022-12-18T11:40:30;-1.90;99.90
70726;DHT22;58304;53.104;6.022;2022-12-18T11:43:09;-1.90;99.90
70726;DHT22;58304;53.104;6.022;2022-12-18T11:45:43;-1.90;99.90
70726;DHT22;58304;53.104;6.022;2022-12-18T11:48:22;-1.90;99.90
70726;DHT22;58304;53.104;6.022;2022-12-18T11:50:52;-1.90;99.90
70726;DHT22;58304;53.104;6.022;2022-12-18T11:53:18;-1.90;99.90
70726;DHT22;58304;53.104;6.022;2022-12-18T12:01:48;-1.80;99.90
70726;DHT22;58304;53.104;6.022;2022-12-18T12:09:35;-1.70;99.90
70726;DHT22;58304;53.104;6.022;2022-12-18T12:17:45;-1.80;99.90
70726;DHT22;58304;53.104;6.022;2022-12-18T12:20:27;-1.80;99.90
70726;DHT22;58304;53.104;6.022;2022-12-18T12:26:11;-1.80;99.90
70726;DHT22;58304;53.104;6.022;2022-12-18T12:33:57;-1.60;99.90
70726;DHT22;58304;53.104;6.022;2022-12-18T12:39:21;-1.60;99.90
70726;DHT22;58304;53.104;6.022;2022-12-18T12:41:48;-1.60;99.90
70726;DHT22;58304;53.104;6.022;2022-12-18T12:44:39;-1.50;99.90
70726;DHT22;58304;53.104;6.022;2022-12-18T12:47:36;-1.50;99.90
70726;DHT22;58304;53.104;6.022;2022-12-18T12:50:03;-1.40;99.90
70726;DHT22;58304;53.104;6.022;2022-12-18T12:52:33;-1.40;99.90
70726;DHT22;58304;53.104;6.022;2022-12-18T12:55:02;-1.40;99.90
70726;DHT22;58304;53.104;6.022;2022-12-18T12:57:40;-1.40;99.90
70726;DHT22;58304;53.104;6.022;2022-12-18T13:00:15;-1.40;99.90
70726;DHT22;58304;53.104;6.022;2022-12-18T13:05:34;-1.30;99.90
70726;DHT22;58304;53.104;6.022;2022-12-18T13:08:09;-1.20;99.90
70726;DHT22;58304;53.104;6.022;2022-12-18T13:10:39;-1.20;99.90
70726;DHT22;58304;53.104;6.022;2022-12-18T13:13:12;-1.20;99.90
70726;DHT22;58304;53.104;6.022;2022-12-18T13:18:21;-1.20;99.90
70726;DHT22;58304;53.104;6.022;2022-12-18T13:21:03;-1.20;99.90
70726;DHT22;58304;53.104;6.022;2022-12-18T13:23:31;-1.30;99.90
70726;DHT22;58304;53.104;6.022;2022-12-18T13:31:14;-1.30;99.90
70726;DHT22;58304;53.104;6.022;2022-12-18T13:33:41;-1.30;99.90
70726;DHT22;58304;53.104;6.022;2022-12-18T13:36:26;-1.30;99.90
70726;DHT22;58304;53.104;6.022;2022-12-18T13:39:31;-1.20;99.90
70726;DHT22;58304;53.104;6.022;2022-12-18T13:44:55;-1.20;99.90
70726;DHT22;58304;53.104;6.022;2022-12-18T13:47:37;-1.20;99.90
70726;DHT22;58304;53.104;6.022;2022-12-18T13:50:23;-1.20;99.90
70726;DHT22;58304;53.104;6.022;2022-12-18T13:53:05;-1.20;99.90
70726;DHT22;58304;53.104;6.022;2022-12-18T13:55:30;-1.20;99.90
70726;DHT22;58304;53.104;6.022;2022-12-18T13:58:04;-1.20;99.90
70726;DHT22;58304;53.104;6.022;2022-12-18T14:00:31;-1.20;99.90
70726;DHT22;58304;53.104;6.022;2022-12-18T14:02:58;-1.20;99.90
70726;DHT22;58304;53.104;6.022;2022-12-18T14:05:35;-1.20;99.90
70726;DHT22;58304;53.104;6.022;2022-12-18T14:08:05;-1.20;99.90
70726;DHT22;58304;53.104;6.022;2022-12-18T14:10:32;-1.20;99.90
70726;DHT22;58304;53.104;6.022;2022-12-18T14:12:58;-1.20;99.90
70726;DHT22;58304;53.104;6.022;2022-12-18T14:15:48;-1.20;99.90
70726;DHT22;58304;53.104;6.022;2022-12-18T14:20:43;-1.30;99.90
70726;DHT22;58304;53.104;6.022;2022-12-18T14:23:48;-1.20;99.90
70726;DHT22;58304;53.104;6.022;2022-12-18T14:26:29;-1.20;99.90
70726;DHT22;58304;53.104;6.022;2022-12-18T14:29:01;-1.30;99.90
70726;DHT22;58304;53.104;6.022;2022-12-18T14:31:42;-1.20;99.90
70726;DHT22;58304;53.104;6.022;2022-12-18T14:34:15;-1.20;99.90
70726;DHT22;58304;53.104;6.022;2022-12-18T14:36:41;-1.30;99.90
70726;DHT22;58304;53.104;6.022;2022-12-18T14:39:17;-1.30;99.90
70726;DHT22;58304;53.104;6.022;2022-12-18T14:41:42;-1.30;99.90
70726;DHT22;58304;53.104;6.022;2022-12-18T14:44:12;-1.20;99.90
70726;DHT22;58304;53.104;6.022;2022-12-18T14:46:39;-1.20;99.90
70726;DHT22;58304;53.104;6.022;2022-12-18T14:49:31;-1.20;99.90
70726;DHT22;58304;53.104;6.022;2022-12-18T14:51:58;-1.20;99.90
70726;DHT22;58304;53.104;6.022;2022-12-18T14:54:26;-1.30;99.90
70726;DHT22;58304;53.104;6.022;2022-12-18T14:57:02;-1.30;99.90
70726;DHT22;58304;53.104;6.022;2022-12-18T14:59:28;-1.30;99.90
70726;DHT22;58304;53.104;6.022;2022-12-18T15:04:27;-1.40;99.90
70726;DHT22;58304;53.104;6.022;2022-12-18T15:09:40;-1.30;99.90
70726;DHT22;58304;53.104;6.022;2022-12-18T15:12:22;-1.30;99.90
70726;DHT22;58304;53.104;6.022;2022-12-18T15:14:50;-1.30;99.90
70726;DHT22;58304;53.104;6.022;2022-12-18T15:17:21;-1.30;99.90
70726;DHT22;58304;53.104;6.022;2022-12-18T15:19:48;-1.30;99.90
70726;DHT22;58304;53.104;6.022;2022-12-18T15:22:28;-1.30;99.90
70726;DHT22;58304;53.104;6.022;2022-12-18T15:24:55;-1.30;99.90
70726;DHT22;58304;53.104;6.022;2022-12-18T15:27:33;-1.20;99.90
70726;DHT22;58304;53.104;6.022;2022-12-18T15:32:35;-1.20;99.90
70726;DHT22;58304;53.104;6.022;2022-12-18T15:35:24;-1.20;99.90
70726;DHT22;58304;53.104;6.022;2022-12-18T15:37:51;-1.30;99.90
70726;DHT22;58304;53.104;6.022;2022-12-18T15:40:20;-1.20;99.90
70726;DHT22;58304;53.104;6.022;2022-12-18T15:42:46;-1.20;99.90
70726;DHT22;58304;53.104;6.022;2022-12-18T15:45:31;-1.20;99.90
70726;DHT22;58304;53.104;6.022;2022-12-18T15:47:57;-1.10;99.90
70726;DHT22;58304;53.104;6.022;2022-12-18T15:50:23;-1.10;99.90
70726;DHT22;58304;53.104;6.022;2022-12-18T15:52:51;-1.10;99.90
70726;DHT22;58304;53.104;6.022;2022-12-18T15:55:19;-1.10;99.90
70726;DHT22;58304;53.104;6.022;2022-12-18T15:58:04;-1.00;99.90
70726;DHT22;58304;53.104;6.022;2022-12-18T16:00:31;-1.10;99.90
70726;DHT22;58304;53.104;6.022;2022-12-18T16:02:58;-1.10;99.90
70726;DHT22;58304;53.104;6.022;2022-12-18T16:05:24;-1.00;99.90
70726;DHT22;58304;53.104;6.022;2022-12-18T16:07:51;-1.10;99.90
70726;DHT22;58304;53.104;6.022;2022-12-18T16:10:17;-1.10;99.90
70726;DHT22;58304;53.104;6.022;2022-12-18T16:12:42;-1.10;99.90
70726;DHT22;58304;53.104;6.022;2022-12-18T16:15:14;-1.10;99.90
70726;DHT22;58304;53.104;6.022;2022-12-18T16:17:44;-1.00;99.90
70726;DHT22;58304;53.104;6.022;2022-12-18T16:20:16;-1.10;99.90
70726;DHT22;58304;53.104;6.022;2022-12-18T16:22:43;-1.10;99.90
70726;DHT22;58304;53.104;6.022;2022-12-18T16:25:23;-1.10;99.90
70726;DHT22;58304;53.104;6.022;2022-12-18T16:27:50;-1.20;99.90
70726;DHT22;58304;53.104;6.022;2022-12-18T16:30:22;-1.20;99.90
70726;DHT22;58304;53.104;6.022;2022-12-18T16:32:48;-1.10;99.90
70726;DHT22;58304;53.104;6.022;2022-12-18T16:35:15;-1.10;99.90
70726;DHT22;58304;53.104;6.022;2022-12-18T16:37:41;-1.10;99.90
70726;DHT22;58304;53.104;6.022;2022-12-18T16:40:09;-1.10;99.90
70726;DHT22;58304;53.104;6.022;2022-12-18T16:42:38;-1.10;99.90
70726;DHT22;58304;53.104;6.022;2022-12-18T16:45:06;-1.10;99.90
70726;DHT22;58304;53.104;6.022;2022-12-18T16:47:32;-1.10;99.90
70726;DHT22;58304;53.104;6.022;2022-12-18T16:49:58;-1.10;99.90
70726;DHT22;58304;53.104;6.022;2022-12-18T16:52:24;-1.10;99.90
70726;DHT22;58304;53.104;6.022;2022-12-18T16:54:50;-1.00;99.90
70726;DHT22;58304;53.104;6.022;2022-12-18T16:57:18;-1.00;99.90
70726;DHT22;58304;53.104;6.022;2022-12-18T16:59:44;-1.00;99.90
70726;DHT22;58304;53.104;6.022;2022-12-18T17:02:18;-1.00;99.90
70726;DHT22;58304;53.104;6.022;2022-12-18T17:04:44;-1.00;99.90
70726;DHT22;58304;53.104;6.022;2022-12-18T17:07:10;-1.00;99.90
70726;DHT22;58304;53.104;6.022;2022-12-18T17:09:36;-1.00;99.90
70726;DHT22;58304;53.104;6.022;2022-12-18T17:12:02;-0.90;99.90